createdAt,value
2018-08-08T00:00:33.344Z,7.10
2018-08-08T00:03:02.532Z,7.83
2018-08-08T00:05:32.045Z,8.30
2018-08-08T00:08:01.333Z,8.17
2018-08-08T00:10:30.425Z,7.77
2018-08-08T00:12:59.787Z,8.23
2018-08-08T00:15:29.008Z,7.90
2018-08-08T00:17:58.209Z,7.53
2018-08-08T00:20:27.226Z,7.60
2018-08-08T00:22:56.411Z,7.50
2018-08-08T00:25:25.474Z,7.10
2018-08-08T00:27:54.527Z,8.07
2018-08-08T00:30:23.695Z,7.13
2018-08-08T00:32:52.791Z,6.50
2018-08-08T00:35:22.658Z,7.17
2018-08-08T00:37:51.782Z,7.60
2018-08-08T00:40:20.862Z,6.57
2018-08-08T00:42:49.867Z,7.60
2018-08-08T00:45:19.025Z,7.43
2018-08-08T00:47:48.511Z,7.33
2018-08-08T00:50:17.959Z,7.63
2018-08-08T00:52:47.048Z,7.77
2018-08-08T00:55:16.287Z,8.27
2018-08-08T00:57:45.371Z,7.47
2018-08-08T01:00:16.636Z,7.63
2018-08-08T01:02:46.432Z,7.43
2018-08-08T01:05:16.364Z,7.50
2018-08-08T01:07:46.247Z,7.83
2018-08-08T01:10:15.428Z,8.40
2018-08-08T01:12:44.563Z,7.40
2018-08-08T01:15:14.471Z,8.13
2018-08-08T01:17:44.067Z,6.97
2018-08-08T01:20:14.465Z,7.30
2018-08-08T01:22:43.884Z,7.90
2018-08-08T01:25:14.689Z,7.43
2018-08-08T01:27:44.103Z,6.77
2018-08-08T01:30:15.624Z,6.97
2018-08-08T01:32:44.819Z,6.47
2018-08-08T01:35:14.057Z,6.63
2018-08-08T01:37:43.386Z,6.43
2018-08-08T01:40:14.555Z,6.53
2018-08-08T01:42:44.110Z,5.60
2018-08-08T01:45:14.386Z,6.27
2018-08-08T01:47:43.564Z,6.30
2018-08-08T01:50:14.245Z,6.53
2018-08-08T01:52:43.338Z,5.90
2018-08-08T01:55:13.564Z,6.17
2018-08-08T01:57:43.089Z,6.73
2018-08-08T02:00:13.834Z,6.77
2018-08-08T02:02:43.233Z,6.47
2018-08-08T02:05:12.614Z,6.23
2018-08-08T02:07:42.019Z,6.50
2018-08-08T02:10:20.390Z,5.87
2018-08-08T02:12:50.146Z,5.80
2018-08-08T02:15:19.293Z,6.17
2018-08-08T02:17:48.538Z,5.83
2018-08-08T02:20:17.657Z,5.37
2018-08-08T02:22:46.892Z,5.77
2018-08-08T02:25:17.036Z,5.33
2018-08-08T02:27:46.216Z,6.03
2018-08-08T02:30:17.405Z,5.93
2018-08-08T02:32:47.105Z,6.57
2018-08-08T02:35:16.396Z,6.20
2018-08-08T02:37:45.507Z,6.17
2018-08-08T02:40:14.663Z,5.30
2018-08-08T02:42:43.890Z,5.53
2018-08-08T02:45:15.534Z,5.70
2018-08-08T02:47:45.137Z,6.03
2018-08-08T02:50:15.505Z,5.60
2018-08-08T02:52:44.562Z,6.00
2018-08-08T02:55:14.157Z,5.50
2018-08-08T02:57:43.491Z,5.73
2018-08-08T03:00:15.494Z,6.10
2018-08-08T03:02:44.637Z,5.63
2018-08-08T03:05:13.678Z,5.73
2018-08-08T03:07:43.608Z,6.40
2018-08-08T03:10:14.413Z,7.03
2018-08-08T03:12:44.029Z,6.70
2018-08-08T03:15:14.997Z,5.80
2018-08-08T03:17:44.296Z,5.70
2018-08-08T03:20:14.652Z,5.87
2018-08-08T03:22:45.020Z,6.17
2018-08-08T03:25:14.989Z,6.93
2018-08-08T03:27:44.912Z,6.27
2018-08-08T03:30:18.425Z,6.33
2018-08-08T03:32:47.638Z,6.57
2018-08-08T03:35:17.563Z,5.93
2018-08-08T03:37:46.738Z,6.53
2018-08-08T03:40:16.797Z,6.57
2018-08-08T03:42:46.330Z,6.43
2018-08-08T03:45:16.559Z,6.33
2018-08-08T03:47:45.900Z,6.70
2018-08-08T03:50:15.079Z,6.60
2018-08-08T03:52:45.226Z,5.77
2018-08-08T03:55:14.229Z,7.23
2018-08-08T03:57:43.468Z,5.80
2018-08-08T04:00:20.847Z,6.17
2018-08-08T04:02:50.412Z,6.37
2018-08-08T04:05:19.404Z,6.17
2018-08-08T04:07:48.632Z,6.47
2018-08-08T04:10:18.917Z,6.33
2018-08-08T04:12:48.482Z,6.93
2018-08-08T04:15:18.915Z,6.77
2018-08-08T04:17:48.086Z,6.80
2018-08-08T04:20:17.202Z,6.60
2018-08-08T04:22:46.911Z,7.60
2018-08-08T04:25:16.668Z,7.13
2018-08-08T04:27:46.184Z,7.53
2018-08-08T04:30:20.241Z,7.10
2018-08-08T04:32:50.009Z,7.63
2018-08-08T04:35:19.903Z,7.57
2018-08-08T04:37:49.501Z,8.57
2018-08-08T04:40:19.737Z,7.97
2018-08-08T04:42:49.803Z,7.87
2018-08-08T04:45:19.446Z,8.90
2018-08-08T04:47:48.733Z,8.93
2018-08-08T04:50:18.147Z,8.60
2018-08-08T04:52:47.593Z,8.90
2018-08-08T04:55:17.564Z,8.73
2018-08-08T04:57:46.731Z,7.70
2018-08-08T05:00:17.491Z,7.73
2018-08-08T05:02:46.929Z,8.30
2018-08-08T05:05:16.386Z,9.50
2018-08-08T05:07:46.157Z,8.73
2018-08-08T05:10:15.289Z,9.77
2018-08-08T05:12:44.577Z,8.00
2018-08-08T05:15:16.182Z,6.93
2018-08-08T05:17:46.453Z,8.93
2018-08-08T05:20:16.102Z,8.17
2018-08-08T05:22:46.186Z,7.97
2018-08-08T05:25:15.951Z,7.43
2018-08-08T05:27:45.358Z,8.33
2018-08-08T05:30:16.321Z,9.10
2018-08-08T05:32:45.744Z,8.70
2018-08-08T05:35:16.140Z,9.33
2018-08-08T05:37:45.400Z,9.37
2018-08-08T05:40:17.239Z,8.83
2018-08-08T05:42:47.352Z,8.03
2018-08-08T05:45:16.884Z,8.60
2018-08-08T05:47:47.796Z,9.13
2018-08-08T05:50:17.366Z,8.33
2018-08-08T05:52:46.389Z,9.37
2018-08-08T05:55:16.401Z,8.27
2018-08-08T05:57:46.764Z,8.83
2018-08-08T06:00:21.030Z,8.13
2018-08-08T06:02:50.658Z,8.57
2018-08-08T06:05:19.839Z,9.80
2018-08-08T06:07:49.392Z,8.57
2018-08-08T06:10:18.663Z,7.83
2018-08-08T06:12:48.032Z,7.83
2018-08-08T06:15:18.098Z,7.73
2018-08-08T06:17:47.439Z,7.03
2018-08-08T06:20:18.160Z,6.80
2018-08-08T06:22:47.917Z,7.30
2018-08-08T06:25:17.048Z,8.13
2018-08-08T06:27:46.353Z,9.27
2018-08-08T06:30:27.979Z,6.93
2018-08-08T06:32:57.933Z,8.03
2018-08-08T06:35:28.315Z,6.87
2018-08-08T06:37:58.030Z,7.17
2018-08-08T06:40:27.226Z,8.10
2018-08-08T06:42:56.547Z,7.10
2018-08-08T06:45:27.291Z,7.40
2018-08-08T06:47:56.376Z,7.33
2018-08-08T06:50:25.449Z,7.27
2018-08-08T06:52:54.655Z,6.67
2018-08-08T06:55:24.622Z,7.40
2018-08-08T06:57:54.180Z,6.27
2018-08-08T07:00:28.185Z,7.67
2018-08-08T07:02:57.429Z,7.20
2018-08-08T07:05:26.569Z,8.30
2018-08-08T07:07:56.633Z,8.30
2018-08-08T07:10:25.753Z,8.43
2018-08-08T07:12:55.041Z,9.33
2018-08-08T07:15:24.561Z,10.33
2018-08-08T07:17:53.714Z,8.73
2018-08-08T07:20:22.979Z,9.07
2018-08-08T07:22:52.184Z,7.63
2018-08-08T07:25:21.324Z,8.67
2018-08-08T07:27:50.503Z,9.90
2018-08-08T07:30:20.232Z,8.20
2018-08-08T07:32:49.770Z,8.03
2018-08-08T07:35:19.331Z,7.00
2018-08-08T07:37:48.801Z,7.43
2018-08-08T07:40:19.042Z,6.83
2018-08-08T07:42:48.627Z,6.67
2018-08-08T07:45:20.684Z,6.67
2018-08-08T07:47:50.431Z,6.30
2018-08-08T07:50:19.906Z,7.37
2018-08-08T07:52:49.068Z,6.87
2018-08-08T07:55:19.132Z,6.43
2018-08-08T07:57:48.558Z,7.63
2018-08-08T08:00:23.983Z,7.20
2018-08-08T08:02:53.841Z,7.10
2018-08-08T08:05:23.573Z,7.80
2018-08-08T08:07:53.266Z,6.73
2018-08-08T08:10:22.649Z,7.40
2018-08-08T08:12:52.008Z,6.40
2018-08-08T08:15:21.064Z,6.90
2018-08-08T08:17:50.006Z,7.40
2018-08-08T08:20:19.740Z,6.87
2018-08-08T08:22:49.837Z,6.80
2018-08-08T08:25:18.956Z,6.63
2018-08-08T08:27:48.158Z,6.57
2018-08-08T08:30:18.755Z,7.33
2018-08-08T08:32:47.990Z,6.20
2018-08-08T08:35:16.948Z,6.07
2018-08-08T08:37:46.037Z,5.43
2018-08-08T08:40:15.318Z,6.00
2018-08-08T08:42:44.521Z,6.50
2018-08-08T08:45:13.731Z,7.13
2018-08-08T08:47:42.832Z,6.90
2018-08-08T08:50:11.911Z,10.93
2018-08-08T08:52:40.957Z,9.00
2018-08-08T08:55:10.051Z,7.30
2018-08-08T08:57:39.012Z,7.50
2018-08-08T09:00:11.335Z,8.33
2018-08-08T09:02:40.707Z,8.03
2018-08-08T09:05:10.596Z,8.47
2018-08-08T09:07:39.696Z,8.77
2018-08-08T09:10:10.229Z,8.90
2018-08-08T09:12:40.204Z,9.23
2018-08-08T09:15:11.576Z,8.60
2018-08-08T09:17:40.677Z,9.57
2018-08-08T09:20:09.878Z,8.87
2018-08-08T09:22:38.998Z,10.53
2018-08-08T09:25:08.450Z,10.40
2018-08-08T09:27:37.771Z,9.33
2018-08-08T09:30:09.847Z,8.97
2018-08-08T09:32:40.313Z,9.40
2018-08-08T09:35:09.659Z,9.20
2018-08-08T09:37:39.417Z,9.63
2018-08-08T09:40:09.354Z,9.60
2018-08-08T09:42:38.389Z,9.27
2018-08-08T09:45:08.729Z,9.73
2018-08-08T09:47:38.140Z,9.17
2018-08-08T09:50:07.862Z,8.93
2018-08-08T09:52:36.915Z,8.60
2018-08-08T09:55:06.056Z,9.33
2018-08-08T09:57:35.342Z,8.90
2018-08-08T10:00:05.365Z,8.73
2018-08-08T10:02:36.609Z,7.77
2018-08-08T10:05:07.205Z,6.65
2018-08-08T10:07:36.393Z,7.12
2018-08-08T10:10:06.747Z,7.70
2018-08-08T10:25:35.585Z,8.98
2018-08-08T10:28:04.874Z,7.47
2018-08-08T10:30:34.054Z,7.47
2018-08-08T10:33:03.415Z,7.67
2018-08-08T10:35:32.707Z,7.80
2018-08-08T10:38:01.982Z,7.80
2018-08-08T10:40:31.049Z,7.07
2018-08-08T10:43:00.524Z,7.83
2018-08-08T10:45:29.407Z,6.80
2018-08-08T10:47:58.581Z,6.87
2018-08-08T10:50:27.735Z,6.87
2018-08-08T10:52:56.846Z,7.63
2018-08-08T10:55:26.046Z,7.00
2018-08-08T10:57:55.355Z,7.07
2018-08-08T11:00:24.519Z,6.97
2018-08-08T11:02:53.671Z,7.20
2018-08-08T11:05:23.421Z,7.17
2018-08-08T11:07:52.615Z,7.80
2018-08-08T11:10:22.044Z,7.27
2018-08-08T11:12:51.575Z,7.30
2018-08-08T11:15:21.296Z,6.63
2018-08-08T11:17:50.932Z,6.43
2018-08-08T11:20:20.060Z,6.93
2018-08-08T11:22:49.260Z,6.23
2018-08-08T11:25:18.660Z,6.20
2018-08-08T11:27:47.748Z,6.93
2018-08-08T11:30:17.170Z,6.27
2018-08-08T11:32:46.100Z,7.70
2018-08-08T11:35:15.220Z,7.80
2018-08-08T11:37:44.437Z,7.90
2018-08-08T11:40:13.510Z,8.20
2018-08-08T11:42:42.971Z,7.60
2018-08-08T11:45:12.558Z,7.43
2018-08-08T11:47:41.726Z,7.20
2018-08-08T11:50:11.188Z,7.33
2018-08-08T11:52:40.116Z,6.33
2018-08-08T11:55:09.197Z,6.40
2018-08-08T11:57:38.452Z,6.10
2018-08-08T12:00:07.846Z,5.47
2018-08-08T12:02:37.127Z,6.27
2018-08-08T12:05:06.875Z,5.67
2018-08-08T12:07:35.926Z,6.80
2018-08-08T12:10:05.879Z,5.80
2018-08-08T12:12:35.771Z,5.90
2018-08-08T12:15:05.484Z,5.67
2018-08-08T12:17:34.637Z,5.10
2018-08-08T12:20:03.825Z,6.43
2018-08-08T12:22:33.257Z,6.23
2018-08-08T12:25:02.362Z,7.17
2018-08-08T12:27:31.662Z,5.87
2018-08-08T12:30:00.688Z,6.03
2018-08-08T12:32:29.756Z,5.43
2018-08-08T12:34:59.227Z,6.03
2018-08-08T12:37:28.687Z,6.80
2018-08-08T12:39:58.017Z,6.97
2018-08-08T12:42:27.136Z,6.40
2018-08-08T12:44:56.551Z,6.57
2018-08-08T12:47:25.703Z,6.00
2018-08-08T12:49:55.160Z,5.87
2018-08-08T12:52:24.702Z,5.57
2018-08-08T12:54:54.049Z,6.00
2018-08-08T12:57:23.150Z,5.10
2018-08-08T12:59:52.235Z,5.17
2018-08-08T13:02:21.505Z,5.67
2018-08-08T13:04:50.654Z,5.33
2018-08-08T13:07:20.018Z,4.90
2018-08-08T13:09:49.056Z,5.20
2018-08-08T13:12:18.165Z,4.90
2018-08-08T13:14:47.321Z,6.77
2018-08-08T13:17:16.523Z,5.20
2018-08-08T13:19:46.524Z,5.07
2018-08-08T13:22:15.920Z,5.83
2018-08-08T13:24:45.086Z,5.30
2018-08-08T13:27:14.625Z,5.50
2018-08-08T13:29:43.740Z,5.50
2018-08-08T13:32:12.889Z,5.60
2018-08-08T13:34:42.426Z,5.23
2018-08-08T13:37:11.764Z,5.27
2018-08-08T13:39:40.889Z,5.53
2018-08-08T13:42:09.987Z,5.47
2018-08-08T13:44:39.082Z,5.53
2018-08-08T13:47:08.407Z,5.87
2018-08-08T13:49:37.669Z,6.00
2018-08-08T13:52:07.176Z,5.70
2018-08-08T13:54:36.355Z,6.33
2018-08-08T13:57:06.111Z,6.30
2018-08-08T13:59:35.551Z,5.63
2018-08-08T14:02:04.716Z,6.03
2018-08-08T14:04:34.530Z,5.53
2018-08-08T14:07:03.676Z,5.87
2018-08-08T14:09:32.831Z,7.37
2018-08-08T14:12:02.249Z,6.20
2018-08-08T14:14:31.382Z,5.50
2018-08-08T14:17:00.366Z,5.60
2018-08-08T14:19:30.057Z,6.00
2018-08-08T14:21:59.388Z,5.73
2018-08-08T14:24:28.682Z,5.60
2018-08-08T14:26:57.931Z,6.23
2018-08-08T14:29:26.913Z,6.27
2018-08-08T14:31:56.183Z,6.47
2018-08-08T14:34:25.185Z,5.57
2018-08-08T14:36:54.558Z,6.07
2018-08-08T14:39:24.027Z,5.23
2018-08-08T14:41:53.470Z,5.07
2018-08-08T14:44:22.776Z,6.23
2018-08-08T14:46:52.230Z,5.10
2018-08-08T14:49:21.576Z,4.90
2018-08-08T14:51:50.993Z,5.57
2018-08-08T14:54:20.623Z,5.00
2018-08-08T14:56:50.106Z,4.90
2018-08-08T14:59:19.417Z,4.90
2018-08-08T15:01:48.693Z,4.90
2018-08-08T15:04:17.874Z,5.03
2018-08-08T15:06:47.113Z,5.23
2018-08-08T15:09:16.375Z,4.90
2018-08-08T15:11:45.443Z,4.97
2018-08-08T15:14:14.719Z,5.03
2018-08-08T15:17:24.489Z,4.87
2018-08-08T15:19:53.807Z,5.37
2018-08-08T15:22:23.526Z,5.07
2018-08-08T15:24:52.663Z,4.23
2018-08-08T15:27:22.186Z,4.13
2018-08-08T15:29:51.323Z,4.33
2018-08-08T15:32:20.505Z,4.00
2018-08-08T15:34:49.940Z,5.53
2018-08-08T15:37:20.283Z,5.13
2018-08-08T15:39:49.001Z,4.67
2018-08-08T15:42:18.275Z,4.90
2018-08-08T15:44:47.722Z,4.57
2018-08-08T15:47:17.801Z,4.00
2018-08-08T15:49:47.161Z,4.70
2018-08-08T15:52:17.432Z,4.37
2018-08-08T15:54:46.752Z,4.80
2018-08-08T15:57:16.110Z,3.50
2018-08-08T15:59:45.297Z,3.77
2018-08-08T16:02:14.436Z,3.90
2018-08-08T16:04:43.947Z,3.80
2018-08-08T16:07:13.465Z,4.33
2018-08-08T16:09:42.971Z,3.73
2018-08-08T16:12:12.478Z,3.87
2018-08-08T16:14:41.896Z,3.20
2018-08-08T16:17:11.018Z,3.67
2018-08-08T16:19:40.673Z,4.47
2018-08-08T16:22:09.952Z,5.30
2018-08-08T16:24:39.166Z,4.07
2018-08-08T16:27:08.347Z,8.00
2018-08-08T16:29:37.545Z,6.97
2018-08-08T16:32:07.351Z,4.67
2018-08-08T16:37:15.663Z,3.60
2018-08-08T16:39:44.995Z,6.27
2018-08-08T16:42:14.657Z,3.40
2018-08-08T16:44:43.879Z,4.20
2018-08-08T16:47:13.284Z,3.33
2018-08-08T16:49:42.418Z,3.00
2018-08-08T16:52:11.867Z,3.23
2018-08-08T16:54:41.081Z,4.17
2018-08-08T16:57:10.467Z,3.73
2018-08-08T16:59:39.476Z,4.03
2018-08-08T17:02:08.569Z,3.47
2018-08-08T17:04:37.769Z,4.20
2018-08-08T17:07:07.316Z,3.67
2018-08-08T17:09:36.547Z,3.53
2018-08-08T17:12:05.884Z,4.10
2018-08-08T17:14:35.312Z,4.67
2018-08-08T17:17:04.688Z,3.67
2018-08-08T17:19:33.750Z,6.07
2018-08-08T17:22:02.823Z,3.50
2018-08-08T17:24:31.954Z,3.53
2018-08-08T17:27:01.242Z,3.40
2018-08-08T17:29:30.513Z,5.20
2018-08-08T17:32:00.160Z,4.77
2018-08-08T17:34:29.661Z,3.20
2018-08-08T17:36:59.007Z,3.50
2018-08-08T17:39:28.295Z,4.07
2018-08-08T17:41:58.346Z,2.80
2018-08-08T17:44:27.922Z,3.30
2018-08-08T17:46:57.496Z,2.70
2018-08-08T17:49:26.629Z,2.73
2018-08-08T17:51:55.858Z,2.70
2018-08-08T17:54:24.889Z,2.70
2018-08-08T17:56:54.173Z,2.80
2018-08-08T17:59:23.478Z,3.00
2018-08-08T18:01:52.826Z,2.80
2018-08-08T18:04:21.841Z,2.90
2018-08-08T18:06:51.069Z,3.20
2018-08-08T18:09:20.165Z,2.37
2018-08-08T18:11:49.446Z,2.90
2018-08-08T18:14:18.533Z,3.27
2018-08-08T18:16:48.033Z,3.47
2018-08-08T18:19:17.453Z,3.00
2018-08-08T18:21:46.844Z,3.23
2018-08-08T18:24:15.907Z,3.30
2018-08-08T18:26:45.329Z,2.70
2018-08-08T18:29:14.736Z,2.97
2018-08-08T18:31:44.318Z,3.10
2018-08-08T18:34:13.644Z,2.90
2018-08-08T18:36:42.897Z,2.87
2018-08-08T18:39:12.313Z,2.57
2018-08-08T18:41:41.934Z,2.60
2018-08-08T18:44:11.460Z,2.80
2018-08-08T18:46:41.149Z,2.50
2018-08-08T18:49:11.579Z,3.73
2018-08-08T18:51:40.834Z,4.63
2018-08-08T18:54:10.035Z,3.77
2018-08-08T18:56:39.532Z,3.40
2018-08-08T18:59:08.564Z,6.57
2018-08-08T19:01:37.813Z,3.67
2018-08-08T19:04:07.128Z,3.70
2018-08-08T19:06:36.463Z,3.00
2018-08-08T19:09:08.253Z,3.17
2018-08-08T19:11:37.454Z,4.27
2018-08-08T19:14:07.242Z,6.20
2018-08-08T19:16:36.525Z,6.93
2018-08-08T19:19:05.930Z,6.90
2018-08-08T19:21:35.283Z,4.47
2018-08-08T19:24:04.317Z,3.27
2018-08-08T19:26:33.469Z,3.23
2018-08-08T19:29:02.620Z,3.00
2018-08-08T19:31:31.691Z,6.13
2018-08-08T19:34:00.849Z,5.27
2018-08-08T19:36:30.089Z,4.13
2018-08-08T19:38:59.560Z,2.57
2018-08-08T19:41:28.618Z,3.73
2018-08-08T19:43:57.760Z,2.83
2018-08-08T19:46:26.910Z,3.50
2018-08-08T19:48:56.219Z,2.50
2018-08-08T19:51:25.442Z,2.63
2018-08-08T19:53:54.773Z,2.60
2018-08-08T19:56:24.009Z,2.90
2018-08-08T19:58:53.334Z,2.30
2018-08-08T20:01:22.530Z,2.70
2018-08-08T20:03:51.650Z,2.90
2018-08-08T20:06:20.752Z,2.17
2018-08-08T20:08:49.874Z,2.30
2018-08-08T20:11:19.268Z,2.70
2018-08-08T20:13:48.336Z,3.90
2018-08-08T20:16:18.744Z,2.60
2018-08-08T20:18:47.790Z,2.70
2018-08-08T20:21:16.776Z,2.53
2018-08-08T20:23:46.087Z,2.57
2018-08-08T20:26:15.579Z,2.80
2018-08-08T20:28:44.775Z,2.70
2018-08-08T20:31:14.482Z,2.03
2018-08-08T20:33:43.894Z,2.33
2018-08-08T20:36:12.965Z,2.40
2018-08-08T20:38:42.281Z,2.20
2018-08-08T20:41:11.519Z,2.37
2018-08-08T20:43:40.643Z,2.40
2018-08-08T20:46:10.050Z,2.47
2018-08-08T20:48:39.260Z,2.33
2018-08-08T20:51:08.229Z,2.47
2018-08-08T20:53:37.554Z,2.40
2018-08-08T20:56:06.748Z,2.40
2018-08-08T20:58:35.826Z,2.50
2018-08-08T21:01:04.957Z,2.40
2018-08-08T21:03:34.006Z,2.33
2018-08-08T21:06:03.348Z,2.90
2018-08-08T21:08:32.345Z,2.73
2018-08-08T21:11:01.485Z,2.40
2018-08-08T21:13:30.718Z,2.40
2018-08-08T21:16:00.117Z,2.20
2018-08-08T21:18:29.339Z,2.30
2018-08-08T21:20:58.500Z,2.57
2018-08-08T21:23:27.737Z,2.30
2018-08-08T21:25:57.078Z,2.10
2018-08-08T21:28:26.597Z,2.93
2018-08-08T21:30:55.813Z,2.20
2018-08-08T21:33:25.022Z,2.80
2018-08-08T21:35:54.068Z,2.20
2018-08-08T21:38:23.461Z,2.43
2018-08-08T21:40:52.629Z,2.33
2018-08-08T21:43:21.971Z,2.57
2018-08-08T21:45:50.991Z,2.17
2018-08-08T21:48:20.311Z,2.10
2018-08-08T21:50:49.477Z,2.27
2018-08-08T21:53:19.190Z,2.00
2018-08-08T21:55:59.650Z,2.50
2018-08-08T21:58:39.662Z,2.27
2018-08-08T22:01:20.206Z,2.10
2018-08-08T22:04:00.280Z,2.30
2018-08-08T22:06:40.397Z,2.23
2018-08-08T22:09:20.401Z,1.87
2018-08-08T22:12:00.662Z,1.83
2018-08-08T22:14:40.608Z,2.00
2018-08-08T22:17:20.692Z,1.90
2018-08-08T22:19:49.818Z,1.97
2018-08-08T22:22:19.042Z,2.47
2018-08-08T22:24:48.265Z,2.17
2018-08-08T22:27:17.455Z,1.97
2018-08-08T22:29:46.668Z,2.17
2018-08-08T22:32:15.961Z,1.90
2018-08-08T22:34:45.498Z,1.93
2018-08-08T22:37:14.641Z,1.70
2018-08-08T22:39:43.957Z,2.37
2018-08-08T22:42:13.056Z,2.13
2018-08-08T22:44:42.519Z,2.37
2018-08-08T22:47:11.611Z,2.00
2018-08-08T22:49:40.720Z,1.90
2018-08-08T22:52:10.011Z,2.30
2018-08-08T22:54:38.988Z,2.20
2018-08-08T22:57:08.421Z,2.27
2018-08-08T22:59:37.498Z,1.83
2018-08-08T23:02:06.594Z,2.10
2018-08-08T23:04:35.776Z,1.73
2018-08-08T23:07:05.109Z,2.30
2018-08-08T23:09:34.201Z,2.40
2018-08-08T23:12:03.262Z,2.43
2018-08-08T23:14:32.351Z,2.20
2018-08-08T23:17:01.474Z,2.20
2018-08-08T23:19:30.492Z,2.13
2018-08-08T23:21:59.410Z,2.10
2018-08-08T23:24:28.514Z,1.93
2018-08-08T23:26:57.758Z,2.17
2018-08-08T23:29:27.356Z,2.30
2018-08-08T23:31:56.547Z,2.20
2018-08-08T23:34:25.726Z,3.00
2018-08-08T23:36:55.196Z,2.37
2018-08-08T23:39:24.534Z,2.70
2018-08-08T23:41:53.607Z,2.53
2018-08-08T23:44:23.146Z,2.13
2018-08-08T23:46:52.322Z,2.20
2018-08-08T23:49:21.510Z,2.43
2018-08-08T23:51:50.933Z,2.40
2018-08-08T23:54:20.027Z,2.40
2018-08-08T23:56:49.434Z,2.13
2018-08-08T23:59:18.668Z,2.13
